sensor_id;sensor_type;location;lat;lon;timestamp;pressure;altitude;pressure_sealevel;temperature;humidity
66668;BME280;57205;51.438;-2.006;2022-12-01T00:02:02;102219.09;;;1.53;100.00
66668;BME280;57205;51.438;-2.006;2022-12-01T00:04:27;102222.06;;;1.58;100.00
66668;BME280;57205;51.438;-2.006;2022-12-01T00:06:52;102211.66;;;1.64;100.00
66668;BME280;57205;51.438;-2.006;2022-12-01T00:09:18;102203.91;;;1.71;100.00
66668;BME280;57205;51.438;-2.006;2022-12-01T00:12:02;102194.34;;;1.78;100.00
66668;BME280;57205;51.438;-2.006;2022-12-01T00:14:27;102193.00;;;1.82;100.00
66668;BME280;57205;51.438;-2.006;2022-12-01T00:16:52;102183.75;;;1.86;100.00
66668;BME280;57205;51.438;-2.006;2022-12-01T00:19:18;102176.84;;;1.85;100.00
66668;BME280;57205;51.438;-2.006;2022-12-01T00:21:44;102168.75;;;1.86;100.00
66668;BME280;57205;51.438;-2.006;2022-12-01T00:24:10;102169.22;;;1.90;100.00
66668;BME280;57205;51.438;-2.006;2022-12-01T00:26:37;102165.25;;;1.94;100.00
66668;BME280;57205;51.438;-2.006;2022-12-01T00:29:02;102160.47;;;1.97;100.00
66668;BME280;57205;51.438;-2.006;2022-12-01T00:31:28;102160.94;;;2.01;100.00
66668;BME280;57205;51.438;-2.006;2022-12-01T00:33:54;102158.63;;;2.06;100.00
66668;BME280;57205;51.438;-2.006;2022-12-01T00:36:20;102159.91;;;2.10;100.00
66668;BME280;57205;51.438;-2.006;2022-12-01T00:38:45;102168.47;;;2.12;100.00
66668;BME280;57205;51.438;-2.006;2022-12-01T00:41:11;102167.81;;;2.18;100.00
66668;BME280;57205;51.438;-2.006;2022-12-01T00:43:36;102179.69;;;2.22;100.00
66668;BME280;57205;51.438;-2.006;2022-12-01T00:46:02;102184.47;;;2.27;100.00
66668;BME280;57205;51.438;-2.006;2022-12-01T00:48:27;102191.84;;;2.31;100.00
66668;BME280;57205;51.438;-2.006;2022-12-01T00:50:53;102199.41;;;2.34;100.00
66668;BME280;57205;51.438;-2.006;2022-12-01T00:53:20;102204.56;;;2.36;100.00
66668;BME280;57205;51.438;-2.006;2022-12-01T00:55:45;102203.25;;;2.32;100.00
66668;BME280;57205;51.438;-2.006;2022-12-01T00:58:11;102214.78;;;2.31;100.00
66668;BME280;57205;51.438;-2.006;2022-12-01T01:00:36;102224.19;;;2.33;100.00
66668;BME280;57205;51.438;-2.006;2022-12-01T01:03:08;102232.78;;;2.35;100.00
66668;BME280;57205;51.438;-2.006;2022-12-01T01:05:38;102232.41;;;2.38;100.00
66668;BME280;57205;51.438;-2.006;2022-12-01T01:08:12;102235.38;;;2.43;100.00
66668;BME280;57205;51.438;-2.006;2022-12-01T01:10:43;102228.09;;;2.45;100.00
66668;BME280;57205;51.438;-2.006;2022-12-01T01:13:09;102227.13;;;2.46;100.00
66668;BME280;57205;51.438;-2.006;2022-12-01T01:15:36;102227.94;;;2.47;100.00
66668;BME280;57205;51.438;-2.006;2022-12-01T01:18:02;102216.38;;;2.48;100.00
66668;BME280;57205;51.438;-2.006;2022-12-01T01:20:28;102219.00;;;2.48;100.00
66668;BME280;57205;51.438;-2.006;2022-12-01T01:22:53;102217.84;;;2.50;100.00
66668;BME280;57205;51.438;-2.006;2022-12-01T01:25:19;102214.19;;;2.51;100.00
66668;BME280;57205;51.438;-2.006;2022-12-01T01:27:44;102213.53;;;2.57;100.00
66668;BME280;57205;51.438;-2.006;2022-12-01T01:30:10;102220.75;;;2.63;100.00
66668;BME280;57205;51.438;-2.006;2022-12-01T01:32:35;102213.50;;;2.65;100.00
66668;BME280;57205;51.438;-2.006;2022-12-01T01:35:01;102214.78;;;2.69;100.00
66668;BME280;57205;51.438;-2.006;2022-12-01T01:37:26;102219.53;;;2.74;100.00
66668;BME280;57205;51.438;-2.006;2022-12-01T01:39:51;102226.63;;;2.73;100.00
66668;BME280;57205;51.438;-2.006;2022-12-01T01:42:19;102221.34;;;2.73;100.00
66668;BME280;57205;51.438;-2.006;2022-12-01T01:44:48;102216.06;;;2.73;100.00
66668;BME280;57205;51.438;-2.006;2022-12-01T01:47:17;102223.66;;;2.76;100.00
66668;BME280;57205;51.438;-2.006;2022-12-01T01:49:45;102213.38;;;2.81;100.00
66668;BME280;57205;51.438;-2.006;2022-12-01T01:52:11;102214.22;;;2.82;100.00
66668;BME280;57205;51.438;-2.006;2022-12-01T01:54:40;102220.63;;;2.87;100.00
66668;BME280;57205;51.438;-2.006;2022-12-01T01:57:08;102214.34;;;2.88;100.00
66668;BME280;57205;51.438;-2.006;2022-12-01T01:59:45;102215.63;;;2.92;100.00
66668;BME280;57205;51.438;-2.006;2022-12-01T02:02:13;102216.28;;;2.94;100.00
66668;BME280;57205;51.438;-2.006;2022-12-01T02:04:47;102214.28;;;2.96;100.00
66668;BME280;57205;51.438;-2.006;2022-12-01T02:07:16;102214.28;;;2.96;100.00
66668;BME280;57205;51.438;-2.006;2022-12-01T02:09:42;102214.75;;;3.00;100.00
66668;BME280;57205;51.438;-2.006;2022-12-01T02:30:52;102173.44;;;3.22;100.00
66668;BME280;57205;51.438;-2.006;2022-12-01T02:35:59;102169.09;;;3.29;100.00
66668;BME280;57205;51.438;-2.006;2022-12-01T02:41:10;102166.72;;;3.34;100.00
66668;BME280;57205;51.438;-2.006;2022-12-01T02:44:00;102167.19;;;3.37;100.00
66668;BME280;57205;51.438;-2.006;2022-12-01T02:46:48;102146.50;;;3.41;100.00
66668;BME280;57205;51.438;-2.006;2022-12-01T02:49:18;102154.06;;;3.44;100.00
66668;BME280;57205;51.438;-2.006;2022-12-01T02:51:47;102166.31;;;3.45;100.00
66668;BME280;57205;51.438;-2.006;2022-12-01T02:54:14;102157.34;;;3.46;100.00
66668;BME280;57205;51.438;-2.006;2022-12-01T02:56:43;102158.19;;;3.46;100.00
66668;BME280;57205;51.438;-2.006;2022-12-01T02:59:13;102153.72;;;3.47;100.00
66668;BME280;57205;51.438;-2.006;2022-12-01T03:02:12;102153.91;;;3.45;100.00
66668;BME280;57205;51.438;-2.006;2022-12-01T03:10:32;102165.13;;;3.47;100.00
66668;BME280;57205;51.438;-2.006;2022-12-01T03:18:30;102177.81;;;3.52;100.00
66668;BME280;57205;51.438;-2.006;2022-12-01T03:21:12;102173.69;;;3.49;100.00
66668;BME280;57205;51.438;-2.006;2022-12-01T03:23:43;102187.75;;;3.50;100.00
66668;BME280;57205;51.438;-2.006;2022-12-01T03:26:15;102202.78;;;3.49;100.00
66668;BME280;57205;51.438;-2.006;2022-12-01T03:28:48;102205.94;;;3.53;100.00
66668;BME280;57205;51.438;-2.006;2022-12-01T03:31:19;102214.31;;;3.56;100.00
66668;BME280;57205;51.438;-2.006;2022-12-01T03:33:59;102214.19;;;3.50;100.00
66668;BME280;57205;51.438;-2.006;2022-12-01T03:36:49;102214.91;;;3.44;100.00
66668;BME280;57205;51.438;-2.006;2022-12-01T03:39:20;102218.28;;;3.38;100.00
66668;BME280;57205;51.438;-2.006;2022-12-01T03:41:52;102224.47;;;3.30;100.00
66668;BME280;57205;51.438;-2.006;2022-12-01T03:44:33;102228.63;;;3.25;100.00
66668;BME280;57205;51.438;-2.006;2022-12-01T03:47:05;102226.69;;;3.19;100.00
66668;BME280;57205;51.438;-2.006;2022-12-01T03:49:32;102223.75;;;3.14;100.00
66668;BME280;57205;51.438;-2.006;2022-12-01T03:55:01;102218.88;;;3.03;100.00
66668;BME280;57205;51.438;-2.006;2022-12-01T03:58:00;102220.03;;;3.00;100.00
66668;BME280;57205;51.438;-2.006;2022-12-01T04:00:27;102218.56;;;2.97;100.00
66668;BME280;57205;51.438;-2.006;2022-12-01T04:02:56;102219.94;;;2.93;100.00
66668;BME280;57205;51.438;-2.006;2022-12-01T04:05:21;102217.63;;;2.90;100.00
66668;BME280;57205;51.438;-2.006;2022-12-01T04:07:46;102216.31;;;2.86;100.00
66668;BME280;57205;51.438;-2.006;2022-12-01T04:10:12;102215.03;;;2.82;100.00
66668;BME280;57205;51.438;-2.006;2022-12-01T04:12:37;102210.94;;;2.80;100.00
66668;BME280;57205;51.438;-2.006;2022-12-01T04:15:06;102219.84;;;2.79;100.00
66668;BME280;57205;51.438;-2.006;2022-12-01T04:17:33;102211.25;;;2.77;100.00
66668;BME280;57205;51.438;-2.006;2022-12-01T04:19:58;102206.31;;;2.74;100.00
66668;BME280;57205;51.438;-2.006;2022-12-01T04:22:24;102198.94;;;2.69;100.00
66668;BME280;57205;51.438;-2.006;2022-12-01T04:24:50;102203.72;;;2.66;100.00
66668;BME280;57205;51.438;-2.006;2022-12-01T04:27:16;102205.56;;;2.65;100.00
66668;BME280;57205;51.438;-2.006;2022-12-01T04:29:41;102211.00;;;2.64;100.00
66668;BME280;57205;51.438;-2.006;2022-12-01T04:32:07;102213.00;;;2.62;100.00
66668;BME280;57205;51.438;-2.006;2022-12-01T04:34:32;102215.81;;;2.60;100.00
66668;BME280;57205;51.438;-2.006;2022-12-01T04:36:58;102208.72;;;2.61;100.00
66668;BME280;57205;51.438;-2.006;2022-12-01T04:39:23;102207.88;;;2.60;100.00
66668;BME280;57205;51.438;-2.006;2022-12-01T04:41:48;102215.00;;;2.60;100.00
66668;BME280;57205;51.438;-2.006;2022-12-01T04:44:14;102215.34;;;2.57;100.00
66668;BME280;57205;51.438;-2.006;2022-12-01T04:46:39;102221.94;;;2.53;100.00
66668;BME280;57205;51.438;-2.006;2022-12-01T04:49:05;102225.78;;;2.50;100.00
66668;BME280;57205;51.438;-2.006;2022-12-01T04:51:31;102225.78;;;2.50;100.00
66668;BME280;57205;51.438;-2.006;2022-12-01T04:53:56;102237.50;;;2.48;100.00
66668;BME280;57205;51.438;-2.006;2022-12-01T04:56:21;102227.94;;;2.47;100.00
66668;BME280;57205;51.438;-2.006;2022-12-01T04:58:47;102224.81;;;2.43;100.00
66668;BME280;57205;51.438;-2.006;2022-12-01T05:01:14;102217.03;;;2.42;100.00
66668;BME280;57205;51.438;-2.006;2022-12-01T05:03:43;102221.53;;;2.41;100.00
66668;BME280;57205;51.438;-2.006;2022-12-01T05:06:14;102225.16;;;2.40;100.00
66668;BME280;57205;51.438;-2.006;2022-12-01T05:08:40;102221.53;;;2.41;100.00
66668;BME280;57205;51.438;-2.006;2022-12-01T05:11:06;102222.88;;;2.37;100.00
66668;BME280;57205;51.438;-2.006;2022-12-01T05:13:36;102232.25;;;2.40;100.00
66668;BME280;57205;51.438;-2.006;2022-12-01T05:18:32;102241.34;;;2.37;100.00
66668;BME280;57205;51.438;-2.006;2022-12-01T05:20:57;102233.59;;;2.36;100.00
66668;BME280;57205;51.438;-2.006;2022-12-01T05:23:28;102239.53;;;2.38;100.00
66668;BME280;57205;51.438;-2.006;2022-12-01T05:25:54;102241.84;;;2.33;100.00
66668;BME280;57205;51.438;-2.006;2022-12-01T05:28:20;102246.00;;;2.27;100.00
66668;BME280;57205;51.438;-2.006;2022-12-01T05:30:47;102253.13;;;2.27;100.00
66668;BME280;57205;51.438;-2.006;2022-12-01T05:33:13;102244.34;;;2.26;100.00
66668;BME280;57205;51.438;-2.006;2022-12-01T05:35:38;102253.91;;;2.27;100.00
66668;BME280;57205;51.438;-2.006;2022-12-01T05:38:04;102246.66;;;2.21;100.00
66668;BME280;57205;51.438;-2.006;2022-12-01T05:40:30;102258.06;;;2.22;100.00
66668;BME280;57205;51.438;-2.006;2022-12-01T05:42:56;102254.59;;;2.21;100.00
66668;BME280;57205;51.438;-2.006;2022-12-01T05:45:22;102251.94;;;2.21;100.00
66668;BME280;57205;51.438;-2.006;2022-12-01T05:47:47;102251.94;;;2.21;100.00
66668;BME280;57205;51.438;-2.006;2022-12-01T05:50:13;102249.63;;;2.26;100.00
66668;BME280;57205;51.438;-2.006;2022-12-01T05:52:38;102240.22;;;2.24;100.00
66668;BME280;57205;51.438;-2.006;2022-12-01T05:55:04;102247.19;;;2.25;100.00
66668;BME280;57205;51.438;-2.006;2022-12-01T05:57:30;102246.16;;;2.26;100.00
66668;BME280;57205;51.438;-2.006;2022-12-01T05:59:56;102235.97;;;2.23;100.00
66668;BME280;57205;51.438;-2.006;2022-12-01T06:02:21;102237.59;;;2.24;100.00
66668;BME280;57205;51.438;-2.006;2022-12-01T06:04:46;102229.66;;;2.24;100.00
66668;BME280;57205;51.438;-2.006;2022-12-01T06:07:12;102231.47;;;2.23;100.00
66668;BME280;57205;51.438;-2.006;2022-12-01T06:09:37;102239.56;;;2.30;100.00
66668;BME280;57205;51.438;-2.006;2022-12-01T06:12:03;102232.13;;;2.25;100.00
66668;BME280;57205;51.438;-2.006;2022-12-01T06:14:28;102225.41;;;2.23;100.00
66668;BME280;57205;51.438;-2.006;2022-12-01T06:16:53;102235.78;;;2.24;100.00
66668;BME280;57205;51.438;-2.006;2022-12-01T06:19:19;102230.16;;;2.27;100.00
66668;BME280;57205;51.438;-2.006;2022-12-01T06:21:44;102233.78;;;2.26;100.00
66668;BME280;57205;51.438;-2.006;2022-12-01T06:24:09;102229.34;;;2.27;100.00
66668;BME280;57205;51.438;-2.006;2022-12-01T06:26:35;102232.78;;;2.27;100.00
66668;BME280;57205;51.438;-2.006;2022-12-01T06:29:00;102229.19;;;2.28;100.00
66668;BME280;57205;51.438;-2.006;2022-12-01T06:31:26;102226.84;;;2.25;100.00
66668;BME280;57205;51.438;-2.006;2022-12-01T06:33:52;102223.41;;;2.25;100.00
66668;BME280;57205;51.438;-2.006;2022-12-01T06:36:17;102223.56;;;2.23;100.00
66668;BME280;57205;51.438;-2.006;2022-12-01T06:38:43;102231.00;;;2.20;100.00
66668;BME280;57205;51.438;-2.006;2022-12-01T06:41:08;102230.19;;;2.19;100.00
66668;BME280;57205;51.438;-2.006;2022-12-01T06:43:35;102234.81;;;2.17;100.00
66668;BME280;57205;51.438;-2.006;2022-12-01T06:46:05;102226.56;;;2.20;100.00
66668;BME280;57205;51.438;-2.006;2022-12-01T06:48:30;102233.47;;;2.21;100.00
66668;BME280;57205;51.438;-2.006;2022-12-01T06:50:57;102238.75;;;2.21;100.00
66668;BME280;57205;51.438;-2.006;2022-12-01T06:53:22;102239.75;;;2.20;100.00
66668;BME280;57205;51.438;-2.006;2022-12-01T06:55:48;102236.09;;;2.21;100.00
66668;BME280;57205;51.438;-2.006;2022-12-01T06:58:13;102240.75;;;2.19;100.00
66668;BME280;57205;51.438;-2.006;2022-12-01T07:00:38;102252.97;;;2.20;100.00
66668;BME280;57205;51.438;-2.006;2022-12-01T07:03:04;102253.13;;;2.19;100.00
66668;BME280;57205;51.438;-2.006;2022-12-01T07:05:29;102261.72;;;2.13;100.00
66668;BME280;57205;51.438;-2.006;2022-12-01T07:07:56;102264.84;;;2.16;100.00
66668;BME280;57205;51.438;-2.006;2022-12-01T07:10:21;102256.09;;;2.16;100.00
66668;BME280;57205;51.438;-2.006;2022-12-01T07:12:46;102262.84;;;2.18;100.00
66668;BME280;57205;51.438;-2.006;2022-12-01T07:15:12;102269.81;;;2.19;100.00
66668;BME280;57205;51.438;-2.006;2022-12-01T07:17:37;102273.41;;;2.26;100.00
66668;BME280;57205;51.438;-2.006;2022-12-01T07:20:03;102275.69;;;2.29;100.00
66668;BME280;57205;51.438;-2.006;2022-12-01T07:22:28;102277.00;;;2.33;100.00
66668;BME280;57205;51.438;-2.006;2022-12-01T07:24:54;102274.56;;;2.32;100.00
66668;BME280;57205;51.438;-2.006;2022-12-01T07:27:19;102277.84;;;2.34;100.00
66668;BME280;57205;51.438;-2.006;2022-12-01T07:29:45;102282.94;;;2.35;100.00
66668;BME280;57205;51.438;-2.006;2022-12-01T07:32:10;102284.94;;;2.33;100.00
66668;BME280;57205;51.438;-2.006;2022-12-01T07:34:36;102282.28;;;2.33;100.00
66668;BME280;57205;51.438;-2.006;2022-12-01T07:37:02;102281.94;;;2.36;100.00
66668;BME280;57205;51.438;-2.006;2022-12-01T07:39:28;102289.56;;;2.39;100.00
66668;BME280;57205;51.438;-2.006;2022-12-01T07:41:53;102289.84;;;2.44;100.00
66668;BME280;57205;51.438;-2.006;2022-12-01T07:44:19;102295.97;;;2.45;100.00
66668;BME280;57205;51.438;-2.006;2022-12-01T07:46:44;102295.63;;;2.48;100.00
66668;BME280;57205;51.438;-2.006;2022-12-01T07:49:09;102300.91;;;2.48;100.00
66668;BME280;57205;51.438;-2.006;2022-12-01T07:51:39;102309.47;;;2.50;100.00
66668;BME280;57205;51.438;-2.006;2022-12-01T07:54:05;102313.09;;;2.57;100.00
66668;BME280;57205;51.438;-2.006;2022-12-01T07:56:31;102308.63;;;2.57;100.00
66668;BME280;57205;51.438;-2.006;2022-12-01T07:58:57;102312.75;;;2.60;100.00
66668;BME280;57205;51.438;-2.006;2022-12-01T08:01:23;102317.41;;;2.58;100.00
66668;BME280;57205;51.438;-2.006;2022-12-01T08:03:54;102321.19;;;2.55;100.00
66668;BME280;57205;51.438;-2.006;2022-12-01T08:06:20;102322.88;;;2.48;100.00
66668;BME280;57205;51.438;-2.006;2022-12-01T08:08:46;102328.31;;;2.47;100.00
66668;BME280;57205;51.438;-2.006;2022-12-01T08:11:17;102336.56;;;2.44;100.00
66668;BME280;57205;51.438;-2.006;2022-12-01T08:13:43;102336.91;;;2.41;100.00
66668;BME280;57205;51.438;-2.006;2022-12-01T08:16:13;102349.28;;;2.40;100.00
66668;BME280;57205;51.438;-2.006;2022-12-01T08:18:39;102345.34;;;2.36;100.00
66668;BME280;57205;51.438;-2.006;2022-12-01T08:21:06;102346.03;;;2.30;100.00
66668;BME280;57205;51.438;-2.006;2022-12-01T08:23:32;102345.38;;;2.28;100.00
66668;BME280;57205;51.438;-2.006;2022-12-01T08:26:06;102348.81;;;2.29;100.00
66668;BME280;57205;51.438;-2.006;2022-12-01T08:28:34;102339.91;;;2.22;100.00
66668;BME280;57205;51.438;-2.006;2022-12-01T08:31:17;102342.06;;;2.18;100.00
66668;BME280;57205;51.438;-2.006;2022-12-01T08:33:43;102341.25;;;2.18;100.00
66668;BME280;57205;51.438;-2.006;2022-12-01T08:36:09;102343.06;;;2.17;100.00
66668;BME280;57205;51.438;-2.006;2022-12-01T08:38:34;102344.06;;;2.16;100.00
66668;BME280;57205;51.438;-2.006;2022-12-01T08:41:07;102342.72;;;2.20;100.00
66668;BME280;57205;51.438;-2.006;2022-12-01T08:43:33;102342.56;;;2.22;100.00
66668;BME280;57205;51.438;-2.006;2022-12-01T08:46:03;102342.72;;;2.20;100.00
66668;BME280;57205;51.438;-2.006;2022-12-01T08:48:29;102340.56;;;2.24;100.00
66668;BME280;57205;51.438;-2.006;2022-12-01T08:51:13;102346.53;;;2.26;100.00
66668;BME280;57205;51.438;-2.006;2022-12-01T08:53:41;102351.63;;;2.27;100.00
66668;BME280;57205;51.438;-2.006;2022-12-01T08:56:20;102351.97;;;2.32;100.00
66668;BME280;57205;51.438;-2.006;2022-12-01T08:58:45;102354.44;;;2.34;100.00
66668;BME280;57205;51.438;-2.006;2022-12-01T09:01:13;102368.31;;;2.36;100.00
66668;BME280;57205;51.438;-2.006;2022-12-01T09:03:39;102362.84;;;2.37;100.00
66668;BME280;57205;51.438;-2.006;2022-12-01T09:06:10;102355.59;;;2.39;100.00
66668;BME280;57205;51.438;-2.006;2022-12-01T09:08:36;102356.91;;;2.43;100.00
66668;BME280;57205;51.438;-2.006;2022-12-01T09:11:05;102356.56;;;2.46;100.00
66668;BME280;57205;51.438;-2.006;2022-12-01T09:13:33;102353.25;;;2.44;100.00
66668;BME280;57205;51.438;-2.006;2022-12-01T09:16:01;102364.97;;;2.42;100.00
66668;BME280;57205;51.438;-2.006;2022-12-01T09:18:27;102361.53;;;2.41;100.00
66668;BME280;57205;51.438;-2.006;2022-12-01T09:20:53;102355.41;;;2.41;100.00
66668;BME280;57205;51.438;-2.006;2022-12-01T09:23:19;102356.56;;;2.46;100.00
66668;BME280;57205;51.438;-2.006;2022-12-01T09:25:45;102356.06;;;2.43;100.00
66668;BME280;57205;51.438;-2.006;2022-12-01T09:28:11;102353.06;;;2.46;100.00
66668;BME280;57205;51.438;-2.006;2022-12-01T09:30:36;102354.56;;;2.48;100.00
66668;BME280;57205;51.438;-2.006;2022-12-01T09:33:01;102347.59;;;2.55;100.00
66668;BME280;57205;51.438;-2.006;2022-12-01T09:35:29;102344.63;;;2.58;100.00
66668;BME280;57205;51.438;-2.006;2022-12-01T09:37:55;102352.22;;;2.61;100.00
66668;BME280;57205;51.438;-2.006;2022-12-01T09:40:27;102345.94;;;2.62;100.00
66668;BME280;57205;51.438;-2.006;2022-12-01T09:42:54;102356.66;;;2.69;100.00
66668;BME280;57205;51.438;-2.006;2022-12-01T09:45:40;102357.50;;;2.69;100.00
66668;BME280;57205;51.438;-2.006;2022-12-01T09:48:24;102355.84;;;2.68;100.00
66668;BME280;57205;51.438;-2.006;2022-12-01T09:50:51;102356.66;;;2.69;100.00
66668;BME280;57205;51.438;-2.006;2022-12-01T09:53:20;102362.59;;;2.71;100.00
66668;BME280;57205;51.438;-2.006;2022-12-01T09:55:47;102362.06;;;2.75;100.00
66668;BME280;57205;51.438;-2.006;2022-12-01T09:58:17;102367.38;;;2.75;100.00
66668;BME280;57205;51.438;-2.006;2022-12-01T10:00:45;102365.25;;;2.71;100.00
66668;BME280;57205;51.438;-2.006;2022-12-01T10:05:51;102360.13;;;2.69;100.00
66668;BME280;57205;51.438;-2.006;2022-12-01T10:08:22;102362.44;;;2.72;100.00
66668;BME280;57205;51.438;-2.006;2022-12-01T10:10:52;102357.63;;;2.76;100.00
66668;BME280;57205;51.438;-2.006;2022-12-01T10:13:25;102362.25;;;2.82;100.00
66668;BME280;57205;51.438;-2.006;2022-12-01T10:16:11;102349.69;;;2.84;100.00
66668;BME280;57205;51.438;-2.006;2022-12-01T10:20:02;102354.13;;;2.83;100.00
66668;BME280;57205;51.438;-2.006;2022-12-01T10:24:54;102357.06;;;2.96;100.00
66668;BME280;57205;51.438;-2.006;2022-12-01T10:28:03;102344.13;;;3.02;100.00
66668;BME280;57205;51.438;-2.006;2022-12-01T10:30:35;102343.47;;;2.99;100.00
66668;BME280;57205;51.438;-2.006;2022-12-01T10:33:33;102340.84;;;2.99;100.00
66668;BME280;57205;51.438;-2.006;2022-12-01T10:35:59;102346.78;;;3.02;100.00
66668;BME280;57205;51.438;-2.006;2022-12-01T10:38:27;102344.28;;;3.08;100.00
66668;BME280;57205;51.438;-2.006;2022-12-01T10:40:54;102335.47;;;3.16;100.00
66668;BME280;57205;51.438;-2.006;2022-12-01T10:43:48;102330.00;;;3.17;100.00
66668;BME280;57205;51.438;-2.006;2022-12-01T10:46:23;102333.97;;;3.21;100.00
66668;BME280;57205;51.438;-2.006;2022-12-01T10:48:57;102335.31;;;3.17;100.00
66668;BME280;57205;51.438;-2.006;2022-12-01T10:51:24;102332.13;;;3.22;100.00
66668;BME280;57205;51.438;-2.006;2022-12-01T10:53:57;102331.47;;;3.20;100.00
66668;BME280;57205;51.438;-2.006;2022-12-01T10:56:23;102331.63;;;3.26;100.00
66668;BME280;57205;51.438;-2.006;2022-12-01T10:58:56;102326.97;;;3.28;100.00
66668;BME280;57205;51.438;-2.006;2022-12-01T11:01:24;102327.31;;;3.25;100.00
66668;BME280;57205;51.438;-2.006;2022-12-01T11:03:53;102329.44;;;3.30;100.00
66668;BME280;57205;51.438;-2.006;2022-12-01T11:06:24;102323.97;;;3.31;100.00
66668;BME280;57205;51.438;-2.006;2022-12-01T11:08:54;102321.00;;;3.34;100.00
66668;BME280;57205;51.438;-2.006;2022-12-01T11:11:28;102324.91;;;3.38;100.00
66668;BME280;57205;51.438;-2.006;2022-12-01T11:13:56;102317.09;;;3.45;100.00
66668;BME280;57205;51.438;-2.006;2022-12-01T11:16:35;102323.06;;;3.47;100.00
66668;BME280;57205;51.438;-2.006;2022-12-01T11:19:32;102317.81;;;3.39;100.00
66668;BME280;57205;51.438;-2.006;2022-12-01T11:22:00;102313.22;;;3.33;100.00
66668;BME280;57205;51.438;-2.006;2022-12-01T11:24:37;102304.09;;;3.35;100.00
66668;BME280;57205;51.438;-2.006;2022-12-01T11:27:13;102306.06;;;3.41;100.00
66668;BME280;57205;51.438;-2.006;2022-12-01T11:29:38;102301.09;;;3.38;100.00
66668;BME280;57205;51.438;-2.006;2022-12-01T11:32:31;102297.75;;;3.44;100.00
66668;BME280;57205;51.438;-2.006;2022-12-01T11:37:37;102288.09;;;3.51;100.00
66668;BME280;57205;51.438;-2.006;2022-12-01T11:40:24;102290.41;;;3.54;100.00
66668;BME280;57205;51.438;-2.006;2022-12-01T11:42:54;102286.75;;;3.55;100.00
66668;BME280;57205;51.438;-2.006;2022-12-01T11:50:33;102290.34;;;3.62;100.00
66668;BME280;57205;51.438;-2.006;2022-12-01T11:52:59;102286.81;;;3.70;100.00
66668;BME280;57205;51.438;-2.006;2022-12-01T11:55:26;102287.91;;;3.75;100.00
66668;BME280;57205;51.438;-2.006;2022-12-01T11:57:54;102281.44;;;3.78;100.00
66668;BME280;57205;51.438;-2.006;2022-12-01T12:00:26;102281.91;;;3.81;100.00
66668;BME280;57205;51.438;-2.006;2022-12-01T12:02:58;102279.38;;;3.88;100.00
66668;BME280;57205;51.438;-2.006;2022-12-01T12:05:49;102274.25;;;3.86;100.00
66668;BME280;57205;51.438;-2.006;2022-12-01T12:11:20;102264.03;;;3.98;100.00
66668;BME280;57205;51.438;-2.006;2022-12-01T12:22:40;102264.22;;;3.96;100.00
66668;BME280;57205;51.438;-2.006;2022-12-01T12:25:26;102260.59;;;3.97;100.00
66668;BME280;57205;51.438;-2.006;2022-12-01T12:28:10;102261.06;;;4.01;100.00
66668;BME280;57205;51.438;-2.006;2022-12-01T12:31:21;102259.31;;;4.08;100.00
66668;BME280;57205;51.438;-2.006;2022-12-01T12:39:23;102255.56;;;4.17;100.00
66668;BME280;57205;51.438;-2.006;2022-12-01T12:41:53;102247.09;;;4.22;100.00
66668;BME280;57205;51.438;-2.006;2022-12-01T12:52:29;102224.06;;;4.22;100.00
66668;BME280;57205;51.438;-2.006;2022-12-01T12:55:22;102228.06;;;4.18;100.00
66668;BME280;57205;51.438;-2.006;2022-12-01T13:00:49;102219.66;;;4.29;100.00
66668;BME280;57205;51.438;-2.006;2022-12-01T13:06:43;102223.59;;;4.33;100.00
66668;BME280;57205;51.438;-2.006;2022-12-01T13:09:44;102230.34;;;4.36;100.00
66668;BME280;57205;51.438;-2.006;2022-12-01T13:12:35;102219.94;;;4.34;100.00
66668;BME280;57205;51.438;-2.006;2022-12-01T13:15:19;102221.59;;;4.35;100.00
66668;BME280;57205;51.438;-2.006;2022-12-01T13:17:50;102212.25;;;4.39;100.00
66668;BME280;57205;51.438;-2.006;2022-12-01T13:20:20;102210.06;;;4.43;100.00
66668;BME280;57205;51.438;-2.006;2022-12-01T13:22:47;102208.25;;;4.43;100.00
66668;BME280;57205;51.438;-2.006;2022-12-01T13:25:18;102210.06;;;4.43;100.00
66668;BME280;57205;51.438;-2.006;2022-12-01T13:27:44;102207.22;;;4.44;100.00
66668;BME280;57205;51.438;-2.006;2022-12-01T13:30:23;102210.50;;;4.46;100.00
66668;BME280;57205;51.438;-2.006;2022-12-01T13:32:57;102204.94;;;4.41;100.00
66668;BME280;57205;51.438;-2.006;2022-12-01T13:38:27;102198.28;;;4.45;100.00
66668;BME280;57205;51.438;-2.006;2022-12-01T13:43:36;102195.63;;;4.45;100.00
66668;BME280;57205;51.438;-2.006;2022-12-01T13:46:02;102195.00;;;4.43;100.00
66668;BME280;57205;51.438;-2.006;2022-12-01T13:48:29;102197.63;;;4.43;100.00
66668;BME280;57205;51.438;-2.006;2022-12-01T13:51:13;102193.91;;;4.38;100.00
66668;BME280;57205;51.438;-2.006;2022-12-01T13:53:54;102199.66;;;4.41;100.00
66668;BME280;57205;51.438;-2.006;2022-12-01T13:58:50;102194.34;;;4.41;100.00
66668;BME280;57205;51.438;-2.006;2022-12-01T14:06:41;102195.63;;;4.45;100.00
66668;BME280;57205;51.438;-2.006;2022-12-01T14:12:03;102197.38;;;4.38;100.00
66668;BME280;57205;51.438;-2.006;2022-12-01T14:14:36;102189.16;;;4.33;100.00
66668;BME280;57205;51.438;-2.006;2022-12-01T14:17:03;102192.81;;;4.32;100.00
66668;BME280;57205;51.438;-2.006;2022-12-01T14:19:33;102189.78;;;4.35;100.00
66668;BME280;57205;51.438;-2.006;2022-12-01T14:22:01;102182.84;;;4.34;100.00
66668;BME280;57205;51.438;-2.006;2022-12-01T14:24:32;102178.94;;;4.30;100.00
66668;BME280;57205;51.438;-2.006;2022-12-01T14:26:58;102185.22;;;4.29;100.00
66668;BME280;57205;51.438;-2.006;2022-12-01T14:29:29;102183.59;;;4.28;100.00
66668;BME280;57205;51.438;-2.006;2022-12-01T14:34:24;102179.31;;;4.27;100.00
66668;BME280;57205;51.438;-2.006;2022-12-01T14:37:01;102175.38;;;4.23;100.00
66668;BME280;57205;51.438;-2.006;2022-12-01T14:39:30;102176.19;;;4.24;100.00